createdAt,value
2018-06-09T00:01:24.767Z,26.33
2018-06-09T00:03:57.700Z,27.33
2018-06-09T00:06:38.232Z,31.00
2018-06-09T00:09:10.248Z,27.67
2018-06-09T00:11:43.762Z,30.33
2018-06-09T00:14:14.991Z,26.33
2018-06-09T00:16:46.890Z,24.00
2018-06-09T00:19:19.229Z,25.33
2018-06-09T00:22:02.589Z,26.67
2018-06-09T00:24:33.463Z,26.00
2018-06-09T00:27:06.419Z,27.67
2018-06-09T00:29:42.590Z,30.00
2018-06-09T00:32:14.113Z,28.00
2018-06-09T00:34:46.149Z,27.33
2018-06-09T00:37:18.297Z,28.33
2018-06-09T00:39:49.092Z,27.67
2018-06-09T00:42:21.125Z,27.33
2018-06-09T00:44:52.256Z,25.67
2018-06-09T00:47:24.635Z,25.67
2018-06-09T00:49:58.240Z,29.00
2018-06-09T00:52:31.527Z,26.33
2018-06-09T00:55:06.183Z,28.67
2018-06-09T00:57:38.377Z,29.33
2018-06-09T01:00:10.629Z,24.67
2018-06-09T01:02:42.516Z,27.33
2018-06-09T01:05:15.181Z,31.33
2018-06-09T01:07:45.911Z,27.67
2018-06-09T01:10:16.853Z,27.33
2018-06-09T01:12:48.060Z,28.67
2018-06-09T01:15:21.925Z,29.33
2018-06-09T01:17:56.610Z,29.33
2018-06-09T01:20:28.248Z,24.67
2018-06-09T01:22:59.367Z,28.67
2018-06-09T01:25:30.135Z,29.00
2018-06-09T01:28:11.818Z,28.67
2018-06-09T01:30:46.497Z,27.67
2018-06-09T01:33:18.444Z,27.67
2018-06-09T01:35:51.975Z,27.00
2018-06-09T01:38:23.971Z,26.67
2018-06-09T01:40:57.964Z,28.33
2018-06-09T01:43:30.007Z,24.67
2018-06-09T01:46:01.590Z,23.00
2018-06-09T01:48:37.087Z,24.67
2018-06-09T01:51:09.992Z,26.00
2018-06-09T01:53:41.727Z,25.33
2018-06-09T01:56:14.938Z,28.00
2018-06-09T01:58:50.291Z,27.33
2018-06-09T02:01:24.307Z,30.00
2018-06-09T02:03:56.952Z,28.00
2018-06-09T02:06:29.925Z,27.00
2018-06-09T02:09:00.999Z,29.00
2018-06-09T02:11:32.676Z,27.67
2018-06-09T02:14:05.313Z,28.00
2018-06-09T02:16:37.421Z,29.67
2018-06-09T02:19:09.241Z,30.33
2018-06-09T02:21:41.935Z,28.33
2018-06-09T02:24:13.929Z,29.33
2018-06-09T02:26:46.297Z,30.33
2018-06-09T02:29:18.560Z,28.33
2018-06-09T02:31:50.620Z,28.67
2018-06-09T02:34:22.233Z,26.33
2018-06-09T02:36:53.928Z,25.67
2018-06-09T02:39:24.845Z,27.00
2018-06-09T02:41:56.765Z,26.33
2018-06-09T02:44:28.643Z,28.00
2018-06-09T02:47:00.232Z,26.33
2018-06-09T02:49:32.361Z,27.33
2018-06-09T02:52:04.430Z,27.67
2018-06-09T02:54:36.226Z,26.00
2018-06-09T02:57:06.968Z,26.00
2018-06-09T02:59:40.746Z,27.00
2018-06-09T03:02:14.874Z,30.33
2018-06-09T03:04:45.797Z,24.33
2018-06-09T03:07:17.977Z,28.33
2018-06-09T03:09:51.377Z,31.67
2018-06-09T03:12:24.626Z,27.67
2018-06-09T03:14:57.079Z,32.33
2018-06-09T03:17:29.669Z,26.00
2018-06-09T03:20:01.720Z,30.67
2018-06-09T03:22:37.646Z,29.00
2018-06-09T03:25:13.348Z,30.67
2018-06-09T03:27:46.031Z,29.67
2018-06-09T03:30:18.048Z,32.00
2018-06-09T03:32:53.195Z,28.00
2018-06-09T03:35:24.037Z,27.67
2018-06-09T03:37:55.035Z,28.00
2018-06-09T03:40:27.125Z,28.33
2018-06-09T03:42:59.329Z,32.00
2018-06-09T03:45:34.813Z,29.33
2018-06-09T03:48:07.321Z,32.00
2018-06-09T03:50:47.359Z,32.67
2018-06-09T03:53:23.255Z,33.67
2018-06-09T03:55:56.059Z,32.33
2018-06-09T03:58:28.862Z,31.67
2018-06-09T04:01:03.704Z,32.67
2018-06-09T04:03:43.874Z,33.67
2018-06-09T04:06:16.581Z,29.67
2018-06-09T04:08:48.089Z,28.33
2018-06-09T04:11:19.129Z,28.33
2018-06-09T04:13:50.805Z,29.00
2018-06-09T04:16:22.797Z,30.33
2018-06-09T04:18:56.662Z,28.00
2018-06-09T04:21:28.991Z,32.00
2018-06-09T04:24:02.059Z,30.67
2018-06-09T04:26:34.033Z,28.33
2018-06-09T04:29:06.496Z,30.67
2018-06-09T04:31:38.224Z,32.67
2018-06-09T04:34:11.259Z,33.00
2018-06-09T04:36:43.521Z,34.33
2018-06-09T04:39:15.282Z,34.67
2018-06-09T04:41:47.094Z,32.00
2018-06-09T04:44:18.917Z,32.00
2018-06-09T04:46:52.177Z,27.00
2018-06-09T04:49:23.414Z,31.33
2018-06-09T04:51:57.100Z,31.33
2018-06-09T04:54:28.678Z,30.67
2018-06-09T04:56:59.652Z,35.00
2018-06-09T04:59:31.842Z,29.33
2018-06-09T05:02:05.335Z,29.00
2018-06-09T05:04:39.575Z,30.33
2018-06-09T05:07:11.144Z,29.67
2018-06-09T05:09:41.852Z,28.67
2018-06-09T05:12:13.472Z,29.33
2018-06-09T05:14:47.019Z,33.67
2018-06-09T05:17:19.098Z,25.33
2018-06-09T05:19:52.908Z,31.67
2018-06-09T05:22:26.277Z,27.33
2018-06-09T05:24:57.341Z,32.33
2018-06-09T05:27:28.254Z,28.00
2018-06-09T05:29:58.977Z,29.67
2018-06-09T05:32:30.926Z,28.67
2018-06-09T05:35:09.387Z,30.00
2018-06-09T05:37:41.360Z,33.67
2018-06-09T05:40:14.693Z,30.33
2018-06-09T05:42:47.169Z,31.33
2018-06-09T05:45:18.238Z,35.00
2018-06-09T05:47:48.984Z,32.67
2018-06-09T05:50:21.904Z,34.33
2018-06-09T05:52:53.578Z,35.33
2018-06-09T05:55:26.649Z,33.67
2018-06-09T05:57:58.054Z,33.67
2018-06-09T06:00:30.870Z,31.00
2018-06-09T06:03:03.212Z,32.33
2018-06-09T06:05:41.547Z,32.00
2018-06-09T06:08:16.246Z,34.33
2018-06-09T06:10:50.581Z,36.33
2018-06-09T06:13:23.100Z,34.00
2018-06-09T06:15:54.946Z,37.00
2018-06-09T06:18:27.582Z,35.00
2018-06-09T06:21:01.359Z,34.67
2018-06-09T06:23:38.472Z,35.67
2018-06-09T06:26:15.719Z,35.00
2018-06-09T06:28:49.572Z,34.00
2018-06-09T06:31:23.375Z,38.00
2018-06-09T06:33:54.405Z,35.67
2018-06-09T06:36:26.152Z,34.33
2018-06-09T06:38:57.201Z,37.33
2018-06-09T06:41:30.132Z,35.00
2018-06-09T06:44:01.151Z,36.00
2018-06-09T06:46:33.251Z,34.67
2018-06-09T06:49:09.120Z,40.00
2018-06-09T06:51:42.761Z,36.67
2018-06-09T06:54:15.282Z,37.00
2018-06-09T06:56:46.464Z,32.67
2018-06-09T06:59:18.858Z,35.67
2018-06-09T07:01:57.650Z,32.00
2018-06-09T07:04:30.331Z,34.33
2018-06-09T07:07:03.009Z,35.33
2018-06-09T07:09:34.309Z,33.67
2018-06-09T07:12:10.603Z,31.67
2018-06-09T07:14:42.314Z,34.33
2018-06-09T07:17:15.724Z,31.33
2018-06-09T07:19:49.508Z,33.67
2018-06-09T07:22:29.673Z,34.00
2018-06-09T07:25:01.067Z,34.00
2018-06-09T07:27:32.798Z,31.67
2018-06-09T07:30:06.322Z,33.33
2018-06-09T07:32:38.996Z,35.00
2018-06-09T07:35:11.941Z,33.00
2018-06-09T07:37:46.358Z,32.67
2018-06-09T07:40:18.857Z,31.00
2018-06-09T07:42:50.262Z,30.67
2018-06-09T07:45:22.476Z,31.00
2018-06-09T07:47:57.111Z,31.33
2018-06-09T07:50:34.506Z,32.33
2018-06-09T07:53:05.450Z,32.67
2018-06-09T07:55:36.428Z,32.00
2018-06-09T07:58:09.277Z,32.33
2018-06-09T08:00:41.880Z,34.67
2018-06-09T08:03:13.818Z,33.33
2018-06-09T08:05:49.966Z,31.67
2018-06-09T08:08:24.920Z,32.67
2018-06-09T08:10:56.948Z,31.00
2018-06-09T08:13:29.943Z,30.67
2018-06-09T08:16:03.659Z,32.67
2018-06-09T08:18:39.137Z,35.67
2018-06-09T08:21:11.462Z,36.00
2018-06-09T08:23:45.109Z,33.00
2018-06-09T08:26:19.329Z,35.33
2018-06-09T08:28:51.623Z,35.00
2018-06-09T08:31:23.443Z,35.00
2018-06-09T08:33:54.046Z,33.33
2018-06-09T08:36:25.739Z,34.00
2018-06-09T08:38:59.657Z,33.33
2018-06-09T08:41:34.422Z,32.00
2018-06-09T08:44:10.291Z,32.25
2018-06-09T08:46:43.846Z,32.33
2018-06-09T08:49:22.709Z,30.00
2018-06-09T08:51:54.806Z,31.33
2018-06-09T08:54:26.217Z,33.00
2018-06-09T08:56:57.874Z,34.67
2018-06-09T08:59:32.814Z,31.33
2018-06-09T09:02:08.090Z,34.67
2018-06-09T09:04:41.820Z,30.00
2018-06-09T09:07:16.083Z,32.00
2018-06-09T09:09:48.869Z,29.00
2018-06-09T09:12:23.617Z,32.33
2018-06-09T09:14:58.847Z,30.33
2018-06-09T09:17:33.049Z,30.67
2018-06-09T09:20:07.276Z,31.00
2018-06-09T09:22:41.283Z,32.00
2018-06-09T09:25:15.716Z,35.00
2018-06-09T09:27:46.689Z,31.67
2018-06-09T09:30:19.291Z,32.00
2018-06-09T09:32:51.020Z,30.00
2018-06-09T09:37:47.164Z,31.67
2018-06-09T09:40:18.723Z,30.67
2018-06-09T09:42:49.478Z,33.67
2018-06-09T09:45:24.234Z,32.00
2018-06-09T09:47:57.478Z,31.00
2018-06-09T09:50:29.292Z,31.00
2018-06-09T09:53:00.713Z,33.33
2018-06-09T09:55:31.386Z,31.67
2018-06-09T09:58:03.840Z,31.33
2018-06-09T10:00:41.472Z,30.00
2018-06-09T10:03:15.263Z,30.67
2018-06-09T10:05:50.402Z,31.00
2018-06-09T10:08:26.810Z,33.00
2018-06-09T10:10:59.792Z,32.00
2018-06-09T10:13:35.556Z,31.67
2018-06-09T10:16:06.322Z,32.67
2018-06-09T10:18:39.097Z,29.33
2018-06-09T10:21:10.541Z,31.00
2018-06-09T10:23:41.325Z,32.00
2018-06-09T10:26:12.060Z,29.67
2018-06-09T10:28:43.860Z,31.00
2018-06-09T10:31:14.629Z,30.00
2018-06-09T10:33:53.652Z,31.00
2018-06-09T10:36:24.692Z,29.67
2018-06-09T10:38:59.626Z,30.00
2018-06-09T10:41:31.580Z,32.00
2018-06-09T10:44:03.404Z,29.00
2018-06-09T10:46:38.236Z,31.00
2018-06-09T10:49:08.983Z,29.00
2018-06-09T10:51:40.276Z,29.00
2018-06-09T10:54:13.554Z,28.33
2018-06-09T10:56:46.612Z,32.00
2018-06-09T10:59:17.860Z,27.33
2018-06-09T11:01:52.177Z,29.33
2018-06-09T11:04:24.207Z,29.33
2018-06-09T11:06:56.340Z,30.00
2018-06-09T11:09:28.064Z,29.67
2018-06-09T11:11:59.802Z,28.00
2018-06-09T11:14:31.376Z,29.67
2018-06-09T11:17:02.020Z,28.67
2018-06-09T11:19:34.028Z,27.67
2018-06-09T11:22:09.700Z,29.00
2018-06-09T11:24:41.665Z,29.00
2018-06-09T11:27:13.557Z,26.33
2018-06-09T11:29:44.192Z,30.67
2018-06-09T11:32:16.864Z,26.00
2018-06-09T11:34:47.504Z,29.00
2018-06-09T11:37:18.201Z,29.00
2018-06-09T11:39:50.075Z,31.00
2018-06-09T11:42:28.912Z,29.00
2018-06-09T11:44:59.858Z,32.00
2018-06-09T11:47:31.504Z,29.33
2018-06-09T11:50:06.551Z,29.33
2018-06-09T11:52:40.599Z,29.00
2018-06-09T11:55:11.478Z,30.00
2018-06-09T11:57:44.234Z,30.00
2018-06-09T12:00:19.870Z,27.67
2018-06-09T12:02:51.836Z,25.33
2018-06-09T12:05:24.637Z,27.00
2018-06-09T12:07:58.654Z,28.00
2018-06-09T12:10:30.272Z,25.00
2018-06-09T12:13:05.108Z,25.67
2018-06-09T12:15:38.492Z,26.33
2018-06-09T12:18:13.205Z,25.00
2018-06-09T12:20:45.493Z,24.67
2018-06-09T12:23:17.969Z,26.00
2018-06-09T12:25:53.602Z,25.00
2018-06-09T12:28:27.424Z,24.33
2018-06-09T12:30:58.987Z,27.00
2018-06-09T12:33:32.447Z,26.67
2018-06-09T12:36:04.790Z,25.67
2018-06-09T12:38:38.385Z,24.67
2018-06-09T12:41:10.623Z,28.00
2018-06-09T12:43:45.236Z,29.00
2018-06-09T12:46:15.988Z,27.67
2018-06-09T12:48:47.513Z,26.00
2018-06-09T12:51:18.796Z,27.67
2018-06-09T12:53:50.265Z,29.00
2018-06-09T12:56:24.649Z,25.33
2018-06-09T12:58:57.460Z,22.00
2018-06-09T13:01:32.490Z,22.67
2018-06-09T13:04:03.151Z,25.00
2018-06-09T13:06:35.337Z,25.00
2018-06-09T13:09:08.971Z,27.00
2018-06-09T13:11:40.310Z,27.00
2018-06-09T13:14:13.915Z,26.00
2018-06-09T13:16:44.672Z,26.00
2018-06-09T13:19:15.371Z,24.00
2018-06-09T13:21:46.141Z,27.33
2018-06-09T13:24:20.414Z,28.00
2018-06-09T13:26:51.648Z,29.00
2018-06-09T13:29:25.827Z,28.00
2018-06-09T13:31:59.308Z,26.33
2018-06-09T13:34:31.901Z,30.00
2018-06-09T13:37:04.280Z,27.33
2018-06-09T13:39:37.289Z,23.33
2018-06-09T13:42:08.830Z,25.67
2018-06-09T13:44:41.128Z,26.67
2018-06-09T13:47:16.393Z,27.33
2018-06-09T13:49:47.159Z,29.00
2018-06-09T13:52:18.806Z,28.00
2018-06-09T13:54:51.550Z,27.33
2018-06-09T13:57:22.539Z,29.00
2018-06-09T13:59:53.363Z,30.00
2018-06-09T14:02:24.769Z,28.00
2018-06-09T14:04:57.102Z,29.33
2018-06-09T14:07:29.672Z,28.67
2018-06-09T14:10:00.432Z,28.67
2018-06-09T14:12:32.164Z,28.00
2018-06-09T14:15:04.169Z,28.33
2018-06-09T14:17:35.623Z,26.00
2018-06-09T14:20:08.984Z,24.67
2018-06-09T14:22:40.335Z,26.00
2018-06-09T14:25:15.011Z,29.00
2018-06-09T14:27:46.669Z,25.33
2018-06-09T14:30:18.104Z,26.33
2018-06-09T14:32:49.988Z,28.00
2018-06-09T14:35:21.575Z,26.67
2018-06-09T14:37:55.823Z,30.00
2018-06-09T14:40:29.894Z,26.67
2018-06-09T14:43:07.501Z,27.67
2018-06-09T14:45:39.560Z,27.67
2018-06-09T14:48:10.907Z,28.00
2018-06-09T14:50:42.127Z,29.00
2018-06-09T14:53:16.549Z,25.33
2018-06-09T14:55:49.224Z,26.33
2018-06-09T14:58:20.757Z,28.33
2018-06-09T15:00:54.623Z,24.67
2018-06-09T15:03:28.936Z,25.00
2018-06-09T15:06:00.512Z,24.67
2018-06-09T15:08:32.224Z,25.00
2018-06-09T15:11:05.996Z,26.33
2018-06-09T15:22:34.920Z,31.00
2018-06-09T15:25:05.952Z,29.00
2018-06-09T15:27:37.281Z,30.67
2018-06-09T15:30:14.252Z,33.33
2018-06-09T15:32:52.435Z,29.67
2018-06-09T15:35:24.835Z,31.00
2018-06-09T15:38:03.863Z,32.00
2018-06-09T15:40:34.618Z,31.00
2018-06-09T15:43:06.476Z,31.00
2018-06-09T15:45:43.564Z,31.00
2018-06-09T15:48:16.372Z,29.33
2018-06-09T15:50:49.216Z,32.67
2018-06-09T15:53:21.952Z,32.67
2018-06-09T15:55:53.419Z,26.33
2018-06-09T15:58:24.552Z,30.67
2018-06-09T16:00:56.188Z,33.33
2018-06-09T16:03:31.473Z,37.33
2018-06-09T16:06:06.064Z,36.00
2018-06-09T16:08:36.941Z,34.00
2018-06-09T16:11:13.279Z,34.67
2018-06-09T16:13:47.234Z,31.00
2018-06-09T16:16:18.429Z,31.67
2018-06-09T16:18:51.363Z,30.67
2018-06-09T16:21:22.085Z,32.33
2018-06-09T16:23:55.421Z,31.67
2018-06-09T16:26:31.600Z,25.67
2018-06-09T16:29:10.658Z,34.67
2018-06-09T16:31:43.380Z,38.67
2018-06-09T16:34:14.850Z,35.33
2018-06-09T16:36:49.355Z,35.33
2018-06-09T16:39:20.580Z,38.00
2018-06-09T16:41:51.420Z,35.67
2018-06-09T16:44:24.318Z,32.67
2018-06-09T16:46:58.674Z,31.67
2018-06-09T16:49:38.460Z,33.33
2018-06-09T16:52:12.693Z,30.33
2018-06-09T16:54:47.657Z,28.67
2018-06-09T16:57:23.291Z,29.00
2018-06-09T16:59:58.618Z,30.00
2018-06-09T17:02:29.300Z,29.33
2018-06-09T17:05:04.662Z,28.67
2018-06-09T17:07:37.248Z,32.33
2018-06-09T17:10:08.872Z,31.33
2018-06-09T17:12:40.125Z,30.33
2018-06-09T17:15:15.259Z,28.33
2018-06-09T17:17:48.654Z,24.00
2018-06-09T17:20:20.080Z,25.67
2018-06-09T17:22:51.538Z,23.33
2018-06-09T17:25:23.856Z,24.67
2018-06-09T17:27:56.649Z,28.00
2018-06-09T17:30:29.385Z,26.33
2018-06-09T17:33:00.205Z,27.00
2018-06-09T17:35:33.012Z,24.00
2018-06-09T17:38:06.324Z,25.00
2018-06-09T17:40:39.144Z,26.33
2018-06-09T17:43:10.635Z,28.33
2018-06-09T17:45:42.700Z,28.00
2018-06-09T17:48:13.401Z,26.00
2018-06-09T17:50:44.036Z,28.67
2018-06-09T17:53:19.436Z,28.33
2018-06-09T17:55:54.353Z,25.00
2018-06-09T17:58:29.956Z,26.67
2018-06-09T18:01:02.481Z,24.33
2018-06-09T18:03:36.288Z,24.67
2018-06-09T18:06:10.449Z,22.67
2018-06-09T18:08:41.970Z,25.00
2018-06-09T18:11:13.312Z,24.67
2018-06-09T18:13:44.086Z,26.67
2018-06-09T18:16:16.305Z,28.00
2018-06-09T18:18:50.568Z,25.67
2018-06-09T18:21:21.210Z,23.33
2018-06-09T18:23:53.511Z,23.00
2018-06-09T18:26:25.830Z,23.67
2018-06-09T18:28:57.371Z,25.33
2018-06-09T18:31:31.534Z,24.67
2018-06-09T18:34:02.559Z,23.33
2018-06-09T18:36:34.440Z,23.00
2018-06-09T18:39:09.540Z,25.67
2018-06-09T18:41:40.428Z,25.00
2018-06-09T18:44:22.423Z,26.33
2018-06-09T18:46:56.606Z,27.67
2018-06-09T18:49:29.117Z,29.33
2018-06-09T18:52:01.833Z,29.00
2018-06-09T18:54:39.100Z,28.33
2018-06-09T18:57:14.453Z,26.00
2018-06-09T19:02:26.596Z,27.00
2018-06-09T19:04:57.924Z,20.67
2018-06-09T19:07:35.005Z,20.00
2018-06-09T19:10:08.116Z,21.00
2018-06-09T19:12:42.324Z,22.00
2018-06-09T19:15:15.964Z,22.00
2018-06-09T19:17:47.758Z,23.33
2018-06-09T19:20:21.756Z,21.00
2018-06-09T19:22:53.446Z,20.67
2018-06-09T19:25:24.867Z,25.33
2018-06-09T19:28:00.525Z,23.00
2018-06-09T19:30:31.222Z,21.00
2018-06-09T19:33:03.755Z,19.00
2018-06-09T19:35:35.385Z,16.00
2018-06-09T19:38:10.476Z,17.67
2018-06-09T19:40:46.379Z,18.33
2018-06-09T19:43:19.288Z,20.67
2018-06-09T19:45:54.977Z,19.00
2018-06-09T19:48:29.882Z,18.00
2018-06-09T19:51:04.300Z,20.00
2018-06-09T19:53:36.796Z,24.00
2018-06-09T19:56:22.779Z,20.33
2018-06-09T19:58:59.840Z,20.33
2018-06-09T20:01:34.067Z,22.00
2018-06-09T20:04:07.932Z,18.33
2018-06-09T20:06:41.303Z,17.33
2018-06-09T20:09:25.576Z,19.40
2018-06-09T20:12:01.383Z,19.33
2018-06-09T20:14:35.564Z,23.00
2018-06-09T20:17:09.452Z,19.67
2018-06-09T20:19:43.409Z,21.33
2018-06-09T20:22:17.838Z,19.00
2018-06-09T20:24:52.654Z,18.33
2018-06-09T20:27:27.396Z,19.00
2018-06-09T20:32:47.412Z,17.00
2018-06-09T20:35:21.494Z,19.00
2018-06-09T20:37:55.982Z,18.00
2018-06-09T20:40:30.416Z,19.00
2018-06-09T20:43:05.330Z,17.00
2018-06-09T20:45:39.849Z,16.00
2018-06-09T20:48:13.012Z,17.00
2018-06-09T20:50:50.404Z,19.00
2018-06-09T20:54:28.479Z,16.00
2018-06-09T20:57:00.879Z,18.00
2018-06-09T20:59:37.677Z,19.33
2018-06-09T21:02:11.336Z,16.00
2018-06-09T21:04:45.808Z,16.00
2018-06-09T21:07:19.237Z,16.33
2018-06-09T21:09:54.381Z,15.00
2018-06-09T21:12:25.130Z,19.67
2018-06-09T21:14:59.800Z,19.00
2018-06-09T21:17:33.384Z,17.67
2018-06-09T21:20:05.873Z,19.67
2018-06-09T21:22:37.626Z,20.00
2018-06-09T21:25:26.289Z,23.00
2018-06-09T21:28:06.113Z,19.00
2018-06-09T21:30:44.196Z,24.00
2018-06-09T21:33:31.369Z,21.33
2018-06-09T21:36:11.232Z,16.67
2018-06-09T21:38:48.073Z,17.67
2018-06-09T21:41:30.034Z,21.33
2018-06-09T21:44:06.068Z,20.00
2018-06-09T21:46:44.684Z,20.00
2018-06-09T21:49:17.067Z,16.67
2018-06-09T21:52:06.472Z,21.67
2018-06-09T21:54:41.301Z,17.00
2018-06-09T21:57:13.177Z,17.00
2018-06-09T22:00:06.345Z,18.67
2018-06-09T22:02:40.440Z,18.00
2018-06-09T22:05:13.350Z,13.33
2018-06-09T22:07:51.236Z,12.67
2018-06-09T22:10:30.189Z,15.33
2018-06-09T22:13:02.732Z,18.00
2018-06-09T22:15:38.089Z,14.67
2018-06-09T22:18:09.724Z,15.00
2018-06-09T22:20:41.700Z,16.00
2018-06-09T22:23:12.416Z,18.00
2018-06-09T22:26:10.767Z,15.67
2018-06-09T22:28:41.461Z,18.00
2018-06-09T22:31:14.684Z,17.00
2018-06-09T22:33:49.180Z,18.00
2018-06-09T22:36:25.644Z,19.00
2018-06-09T22:41:57.161Z,17.00
2018-06-09T22:44:31.860Z,15.33
2018-06-09T22:47:03.960Z,15.00
2018-06-09T22:49:40.591Z,16.00
2018-06-09T22:52:15.931Z,15.67
2018-06-09T22:54:50.720Z,15.67
2018-06-09T22:57:26.493Z,13.67
2018-06-09T23:00:02.065Z,16.33
2018-06-09T23:03:07.369Z,15.50
2018-06-09T23:05:39.704Z,14.33
2018-06-09T23:08:13.495Z,15.00
2018-06-09T23:10:47.396Z,15.67
2018-06-09T23:13:23.856Z,15.33
2018-06-09T23:15:58.566Z,15.00
2018-06-09T23:18:33.968Z,13.67
2018-06-09T23:21:06.229Z,11.33
2018-06-09T23:23:41.671Z,15.67
2018-06-09T23:26:17.509Z,14.33
2018-06-09T23:28:52.570Z,16.33
2018-06-09T23:31:27.531Z,15.00
2018-06-09T23:33:59.629Z,16.33
2018-06-09T23:36:33.281Z,16.67
2018-06-09T23:39:07.682Z,18.00
2018-06-09T23:41:41.834Z,19.00
2018-06-09T23:44:14.755Z,17.00
2018-06-09T23:46:47.283Z,15.00
2018-06-09T23:49:22.337Z,16.67
2018-06-09T23:51:55.369Z,15.00
2018-06-09T23:54:29.505Z,14.33
2018-06-09T23:57:03.585Z,17.00
2018-06-09T23:59:35.693Z,14.67
